sensor_id;sensor_type;location;lat;lon;timestamp;P1;durP1;ratioP1;P2;durP2;ratioP2
78416;SDS011;67715;46.170;6.140;2023-02-28T00:02:12;8.13;;;4.97;;
78416;SDS011;67715;46.170;6.140;2023-02-28T00:04:38;7.67;;;4.93;;
78416;SDS011;67715;46.170;6.140;2023-02-28T00:07:03;7.70;;;5.60;;
78416;SDS011;67715;46.170;6.140;2023-02-28T00:09:28;6.43;;;4.73;;
78416;SDS011;67715;46.170;6.140;2023-02-28T00:11:53;7.47;;;5.50;;
78416;SDS011;67715;46.170;6.140;2023-02-28T00:14:19;8.03;;;4.83;;
78416;SDS011;67715;46.170;6.140;2023-02-28T00:16:44;7.67;;;5.13;;
78416;SDS011;67715;46.170;6.140;2023-02-28T00:19:09;7.37;;;5.27;;
78416;SDS011;67715;46.170;6.140;2023-02-28T00:21:38;9.30;;;6.20;;
78416;SDS011;67715;46.170;6.140;2023-02-28T00:24:05;7.50;;;5.57;;
78416;SDS011;67715;46.170;6.140;2023-02-28T00:26:31;7.63;;;4.93;;
78416;SDS011;67715;46.170;6.140;2023-02-28T00:28:56;6.77;;;5.03;;
78416;SDS011;67715;46.170;6.140;2023-02-28T00:31:21;7.23;;;5.10;;
78416;SDS011;67715;46.170;6.140;2023-02-28T00:33:47;9.40;;;5.50;;
78416;SDS011;67715;46.170;6.140;2023-02-28T00:36:12;11.50;;;5.90;;
78416;SDS011;67715;46.170;6.140;2023-02-28T00:38:38;8.07;;;5.63;;
78416;SDS011;67715;46.170;6.140;2023-02-28T00:41:04;8.07;;;5.35;;
78416;SDS011;67715;46.170;6.140;2023-02-28T00:43:30;7.75;;;4.93;;
78416;SDS011;67715;46.170;6.140;2023-02-28T00:45:57;7.63;;;5.07;;
78416;SDS011;67715;46.170;6.140;2023-02-28T00:48:22;8.20;;;5.32;;
78416;SDS011;67715;46.170;6.140;2023-02-28T00:50:48;8.07;;;5.23;;
78416;SDS011;67715;46.170;6.140;2023-02-28T00:53:14;9.13;;;4.95;;
78416;SDS011;67715;46.170;6.140;2023-02-28T00:55:39;6.73;;;4.27;;
78416;SDS011;67715;46.170;6.140;2023-02-28T00:58:05;7.97;;;4.90;;
78416;SDS011;67715;46.170;6.140;2023-02-28T01:00:30;7.87;;;4.63;;
78416;SDS011;67715;46.170;6.140;2023-02-28T01:02:55;7.93;;;5.30;;
78416;SDS011;67715;46.170;6.140;2023-02-28T01:05:21;9.47;;;5.37;;
78416;SDS011;67715;46.170;6.140;2023-02-28T01:07:46;8.20;;;4.73;;
78416;SDS011;67715;46.170;6.140;2023-02-28T01:10:11;6.50;;;4.83;;
78416;SDS011;67715;46.170;6.140;2023-02-28T01:12:37;9.00;;;5.47;;
78416;SDS011;67715;46.170;6.140;2023-02-28T01:15:02;8.40;;;5.70;;
78416;SDS011;67715;46.170;6.140;2023-02-28T01:17:28;6.93;;;4.90;;
78416;SDS011;67715;46.170;6.140;2023-02-28T01:19:54;9.83;;;5.40;;
78416;SDS011;67715;46.170;6.140;2023-02-28T01:22:20;7.43;;;5.53;;
78416;SDS011;67715;46.170;6.140;2023-02-28T01:24:46;5.78;;;4.68;;
78416;SDS011;67715;46.170;6.140;2023-02-28T01:27:11;8.50;;;5.43;;
78416;SDS011;67715;46.170;6.140;2023-02-28T01:29:37;7.20;;;5.73;;
78416;SDS011;67715;46.170;6.140;2023-02-28T01:32:03;8.30;;;5.30;;
78416;SDS011;67715;46.170;6.140;2023-02-28T01:34:28;10.00;;;5.38;;
78416;SDS011;67715;46.170;6.140;2023-02-28T01:36:54;7.00;;;5.17;;
78416;SDS011;67715;46.170;6.140;2023-02-28T01:39:19;8.73;;;5.67;;
78416;SDS011;67715;46.170;6.140;2023-02-28T01:41:44;8.40;;;5.83;;
78416;SDS011;67715;46.170;6.140;2023-02-28T01:47:13;9.55;;;4.90;;
78416;SDS011;67715;46.170;6.140;2023-02-28T01:49:38;7.93;;;5.38;;
78416;SDS011;67715;46.170;6.140;2023-02-28T01:52:04;10.10;;;5.55;;
78416;SDS011;67715;46.170;6.140;2023-02-28T01:54:30;6.70;;;4.90;;
78416;SDS011;67715;46.170;6.140;2023-02-28T01:56:58;9.27;;;5.50;;
78416;SDS011;67715;46.170;6.140;2023-02-28T01:59:29;9.38;;;5.25;;
78416;SDS011;67715;46.170;6.140;2023-02-28T02:01:57;7.80;;;5.53;;
78416;SDS011;67715;46.170;6.140;2023-02-28T02:04:23;7.90;;;5.88;;
78416;SDS011;67715;46.170;6.140;2023-02-28T02:06:51;7.70;;;4.32;;
78416;SDS011;67715;46.170;6.140;2023-02-28T02:09:17;9.00;;;5.68;;
78416;SDS011;67715;46.170;6.140;2023-02-28T02:11:42;7.77;;;5.23;;
78416;SDS011;67715;46.170;6.140;2023-02-28T02:14:22;10.18;;;5.68;;
78416;SDS011;67715;46.170;6.140;2023-02-28T02:17:04;8.63;;;5.65;;
78416;SDS011;67715;46.170;6.140;2023-02-28T02:25:32;8.65;;;5.47;;
78416;SDS011;67715;46.170;6.140;2023-02-28T02:33:28;7.55;;;5.20;;
78416;SDS011;67715;46.170;6.140;2023-02-28T02:44:01;7.35;;;5.60;;
78416;SDS011;67715;46.170;6.140;2023-02-28T02:46:32;8.38;;;5.78;;
78416;SDS011;67715;46.170;6.140;2023-02-28T02:49:00;8.30;;;5.53;;
78416;SDS011;67715;46.170;6.140;2023-02-28T02:51:27;8.88;;;6.32;;
78416;SDS011;67715;46.170;6.140;2023-02-28T02:53:56;12.75;;;6.20;;
78416;SDS011;67715;46.170;6.140;2023-02-28T02:56:25;8.80;;;5.53;;
78416;SDS011;67715;46.170;6.140;2023-02-28T02:58:52;8.55;;;6.38;;
78416;SDS011;67715;46.170;6.140;2023-02-28T03:01:21;11.68;;;6.15;;
78416;SDS011;67715;46.170;6.140;2023-02-28T03:03:58;9.40;;;6.50;;
78416;SDS011;67715;46.170;6.140;2023-02-28T03:06:25;11.65;;;6.15;;
78416;SDS011;67715;46.170;6.140;2023-02-28T03:08:50;9.77;;;5.53;;
78416;SDS011;67715;46.170;6.140;2023-02-28T03:11:15;8.40;;;5.83;;
78416;SDS011;67715;46.170;6.140;2023-02-28T03:22:24;5.97;;;3.75;;
78416;SDS011;67715;46.170;6.140;2023-02-28T03:27:37;9.68;;;6.03;;
78416;SDS011;67715;46.170;6.140;2023-02-28T03:30:24;8.65;;;5.63;;
78416;SDS011;67715;46.170;6.140;2023-02-28T03:32:56;7.60;;;6.00;;
78416;SDS011;67715;46.170;6.140;2023-02-28T03:35:26;8.73;;;5.28;;
78416;SDS011;67715;46.170;6.140;2023-02-28T03:37:58;9.80;;;6.00;;
78416;SDS011;67715;46.170;6.140;2023-02-28T03:40:27;7.22;;;5.50;;
78416;SDS011;67715;46.170;6.140;2023-02-28T03:42:58;10.32;;;6.00;;
78416;SDS011;67715;46.170;6.140;2023-02-28T03:45:28;9.93;;;5.55;;
78416;SDS011;67715;46.170;6.140;2023-02-28T03:48:02;10.40;;;5.93;;
78416;SDS011;67715;46.170;6.140;2023-02-28T03:50:41;9.73;;;5.88;;
78416;SDS011;67715;46.170;6.140;2023-02-28T03:53:09;7.53;;;5.43;;
78416;SDS011;67715;46.170;6.140;2023-02-28T03:55:37;8.85;;;5.78;;
78416;SDS011;67715;46.170;6.140;2023-02-28T03:58:18;8.85;;;6.07;;
78416;SDS011;67715;46.170;6.140;2023-02-28T04:00:48;8.20;;;5.45;;
78416;SDS011;67715;46.170;6.140;2023-02-28T04:03:16;10.02;;;6.45;;
78416;SDS011;67715;46.170;6.140;2023-02-28T04:05:52;10.15;;;6.63;;
78416;SDS011;67715;46.170;6.140;2023-02-28T04:08:18;8.52;;;5.72;;
78416;SDS011;67715;46.170;6.140;2023-02-28T04:10:45;8.57;;;6.28;;
78416;SDS011;67715;46.170;6.140;2023-02-28T04:13:15;7.43;;;5.22;;
78416;SDS011;67715;46.170;6.140;2023-02-28T04:15:41;9.93;;;6.80;;
78416;SDS011;67715;46.170;6.140;2023-02-28T04:18:06;8.90;;;6.23;;
78416;SDS011;67715;46.170;6.140;2023-02-28T04:20:31;10.20;;;6.70;;
78416;SDS011;67715;46.170;6.140;2023-02-28T04:22:56;10.30;;;6.20;;
78416;SDS011;67715;46.170;6.140;2023-02-28T04:25:22;9.93;;;5.83;;
78416;SDS011;67715;46.170;6.140;2023-02-28T04:27:47;9.20;;;6.20;;
78416;SDS011;67715;46.170;6.140;2023-02-28T04:30:12;9.90;;;6.27;;
78416;SDS011;67715;46.170;6.140;2023-02-28T04:32:38;9.75;;;6.20;;
78416;SDS011;67715;46.170;6.140;2023-02-28T04:35:03;8.20;;;6.20;;
78416;SDS011;67715;46.170;6.140;2023-02-28T04:37:29;11.55;;;6.50;;
78416;SDS011;67715;46.170;6.140;2023-02-28T04:39:54;10.43;;;5.90;;
78416;SDS011;67715;46.170;6.140;2023-02-28T04:42:20;9.20;;;6.35;;
78416;SDS011;67715;46.170;6.140;2023-02-28T04:44:45;9.45;;;6.15;;
78416;SDS011;67715;46.170;6.140;2023-02-28T04:47:12;9.90;;;6.35;;
78416;SDS011;67715;46.170;6.140;2023-02-28T04:49:37;9.75;;;6.78;;
78416;SDS011;67715;46.170;6.140;2023-02-28T04:52:03;8.15;;;6.18;;
78416;SDS011;67715;46.170;6.140;2023-02-28T04:54:28;9.70;;;6.07;;
78416;SDS011;67715;46.170;6.140;2023-02-28T04:56:54;9.90;;;6.57;;
78416;SDS011;67715;46.170;6.140;2023-02-28T04:59:19;9.93;;;7.30;;
78416;SDS011;67715;46.170;6.140;2023-02-28T05:01:46;9.15;;;6.00;;
78416;SDS011;67715;46.170;6.140;2023-02-28T05:04:12;9.98;;;5.95;;
78416;SDS011;67715;46.170;6.140;2023-02-28T05:06:37;10.60;;;7.10;;
78416;SDS011;67715;46.170;6.140;2023-02-28T05:09:02;9.00;;;6.40;;
78416;SDS011;67715;46.170;6.140;2023-02-28T05:11:29;10.37;;;6.73;;
78416;SDS011;67715;46.170;6.140;2023-02-28T05:14:11;11.32;;;6.35;;
78416;SDS011;67715;46.170;6.140;2023-02-28T05:16:38;9.82;;;6.25;;
78416;SDS011;67715;46.170;6.140;2023-02-28T05:19:03;12.75;;;6.43;;
78416;SDS011;67715;46.170;6.140;2023-02-28T05:21:36;9.75;;;6.82;;
78416;SDS011;67715;46.170;6.140;2023-02-28T05:24:04;10.73;;;7.03;;
78416;SDS011;67715;46.170;6.140;2023-02-28T05:26:34;12.88;;;6.60;;
78416;SDS011;67715;46.170;6.140;2023-02-28T05:29:00;9.15;;;6.97;;
78416;SDS011;67715;46.170;6.140;2023-02-28T05:31:26;8.60;;;6.00;;
78416;SDS011;67715;46.170;6.140;2023-02-28T05:33:51;11.13;;;6.17;;
78416;SDS011;67715;46.170;6.140;2023-02-28T05:36:17;12.88;;;7.28;;
78416;SDS011;67715;46.170;6.140;2023-02-28T05:38:42;8.23;;;5.78;;
78416;SDS011;67715;46.170;6.140;2023-02-28T05:41:08;9.53;;;7.03;;
78416;SDS011;67715;46.170;6.140;2023-02-28T05:43:34;10.77;;;6.75;;
78416;SDS011;67715;46.170;6.140;2023-02-28T05:46:01;7.82;;;5.45;;
78416;SDS011;67715;46.170;6.140;2023-02-28T05:48:27;11.25;;;6.15;;
78416;SDS011;67715;46.170;6.140;2023-02-28T05:50:54;9.50;;;6.10;;
78416;SDS011;67715;46.170;6.140;2023-02-28T05:53:19;9.87;;;6.80;;
78416;SDS011;67715;46.170;6.140;2023-02-28T05:55:45;11.52;;;6.85;;
78416;SDS011;67715;46.170;6.140;2023-02-28T05:58:10;9.70;;;6.97;;
78416;SDS011;67715;46.170;6.140;2023-02-28T06:00:36;13.70;;;7.17;;
78416;SDS011;67715;46.170;6.140;2023-02-28T06:03:01;10.50;;;6.77;;
78416;SDS011;67715;46.170;6.140;2023-02-28T06:05:27;9.23;;;6.85;;
78416;SDS011;67715;46.170;6.140;2023-02-28T06:07:52;10.70;;;6.85;;
78416;SDS011;67715;46.170;6.140;2023-02-28T06:10:18;11.20;;;7.37;;
78416;SDS011;67715;46.170;6.140;2023-02-28T06:12:44;12.30;;;7.07;;
78416;SDS011;67715;46.170;6.140;2023-02-28T06:15:11;11.63;;;7.10;;
78416;SDS011;67715;46.170;6.140;2023-02-28T06:17:38;10.55;;;6.18;;
78416;SDS011;67715;46.170;6.140;2023-02-28T06:20:04;9.55;;;6.28;;
78416;SDS011;67715;46.170;6.140;2023-02-28T06:22:30;10.40;;;6.95;;
78416;SDS011;67715;46.170;6.140;2023-02-28T06:24:56;10.48;;;6.95;;
78416;SDS011;67715;46.170;6.140;2023-02-28T06:27:22;12.95;;;7.05;;
78416;SDS011;67715;46.170;6.140;2023-02-28T06:29:48;8.82;;;6.18;;
78416;SDS011;67715;46.170;6.140;2023-02-28T06:32:13;9.07;;;6.17;;
78416;SDS011;67715;46.170;6.140;2023-02-28T06:34:38;8.90;;;6.47;;
78416;SDS011;67715;46.170;6.140;2023-02-28T06:37:03;11.47;;;7.20;;
78416;SDS011;67715;46.170;6.140;2023-02-28T06:39:29;11.33;;;6.87;;
78416;SDS011;67715;46.170;6.140;2023-02-28T06:41:55;12.68;;;6.85;;
78416;SDS011;67715;46.170;6.140;2023-02-28T06:44:21;10.40;;;6.97;;
78416;SDS011;67715;46.170;6.140;2023-02-28T06:46:47;12.20;;;7.07;;
78416;SDS011;67715;46.170;6.140;2023-02-28T06:49:12;10.93;;;7.30;;
78416;SDS011;67715;46.170;6.140;2023-02-28T06:51:41;10.35;;;7.82;;
78416;SDS011;67715;46.170;6.140;2023-02-28T06:54:09;10.82;;;6.65;;
78416;SDS011;67715;46.170;6.140;2023-02-28T06:56:35;11.18;;;7.28;;
78416;SDS011;67715;46.170;6.140;2023-02-28T06:59:01;12.00;;;7.50;;
78416;SDS011;67715;46.170;6.140;2023-02-28T07:01:27;11.20;;;7.15;;
78416;SDS011;67715;46.170;6.140;2023-02-28T07:03:53;12.68;;;6.90;;
78416;SDS011;67715;46.170;6.140;2023-02-28T07:06:19;10.65;;;7.15;;
78416;SDS011;67715;46.170;6.140;2023-02-28T07:08:47;11.50;;;6.60;;
78416;SDS011;67715;46.170;6.140;2023-02-28T07:11:12;11.38;;;7.03;;
78416;SDS011;67715;46.170;6.140;2023-02-28T07:13:38;9.03;;;5.93;;
78416;SDS011;67715;46.170;6.140;2023-02-28T07:16:04;11.57;;;7.13;;
78416;SDS011;67715;46.170;6.140;2023-02-28T07:18:31;10.20;;;6.90;;
78416;SDS011;67715;46.170;6.140;2023-02-28T07:20:56;14.10;;;7.43;;
78416;SDS011;67715;46.170;6.140;2023-02-28T07:23:21;10.20;;;6.53;;
78416;SDS011;67715;46.170;6.140;2023-02-28T07:25:47;14.15;;;7.50;;
78416;SDS011;67715;46.170;6.140;2023-02-28T07:28:13;12.43;;;7.00;;
78416;SDS011;67715;46.170;6.140;2023-02-28T07:30:38;11.10;;;7.80;;
78416;SDS011;67715;46.170;6.140;2023-02-28T07:33:04;10.35;;;7.65;;
78416;SDS011;67715;46.170;6.140;2023-02-28T07:35:29;11.80;;;7.20;;
78416;SDS011;67715;46.170;6.140;2023-02-28T07:37:57;11.10;;;7.18;;
78416;SDS011;67715;46.170;6.140;2023-02-28T07:40:23;10.68;;;7.53;;
78416;SDS011;67715;46.170;6.140;2023-02-28T07:42:48;11.00;;;6.85;;
78416;SDS011;67715;46.170;6.140;2023-02-28T07:45:13;14.07;;;7.63;;
78416;SDS011;67715;46.170;6.140;2023-02-28T07:47:39;11.80;;;7.45;;
78416;SDS011;67715;46.170;6.140;2023-02-28T07:50:05;12.15;;;7.95;;
78416;SDS011;67715;46.170;6.140;2023-02-28T07:52:31;13.05;;;7.95;;
78416;SDS011;67715;46.170;6.140;2023-02-28T07:54:57;11.68;;;7.90;;
78416;SDS011;67715;46.170;6.140;2023-02-28T07:57:22;11.80;;;7.70;;
78416;SDS011;67715;46.170;6.140;2023-02-28T07:59:47;11.80;;;7.83;;
78416;SDS011;67715;46.170;6.140;2023-02-28T08:02:13;11.37;;;7.70;;
78416;SDS011;67715;46.170;6.140;2023-02-28T08:04:39;12.38;;;8.23;;
78416;SDS011;67715;46.170;6.140;2023-02-28T08:07:05;14.18;;;8.23;;
78416;SDS011;67715;46.170;6.140;2023-02-28T08:09:30;11.37;;;7.77;;
78416;SDS011;67715;46.170;6.140;2023-02-28T08:11:56;13.07;;;8.23;;
78416;SDS011;67715;46.170;6.140;2023-02-28T08:14:21;13.77;;;7.80;;
78416;SDS011;67715;46.170;6.140;2023-02-28T08:16:46;12.40;;;8.13;;
78416;SDS011;67715;46.170;6.140;2023-02-28T08:19:11;11.43;;;7.50;;
78416;SDS011;67715;46.170;6.140;2023-02-28T08:21:37;13.23;;;8.80;;
78416;SDS011;67715;46.170;6.140;2023-02-28T08:24:02;12.43;;;7.93;;
78416;SDS011;67715;46.170;6.140;2023-02-28T08:26:27;13.73;;;8.33;;
78416;SDS011;67715;46.170;6.140;2023-02-28T08:28:53;12.93;;;7.40;;
78416;SDS011;67715;46.170;6.140;2023-02-28T08:31:18;13.63;;;7.63;;
78416;SDS011;67715;46.170;6.140;2023-02-28T08:33:44;11.30;;;8.35;;
78416;SDS011;67715;46.170;6.140;2023-02-28T08:36:10;14.48;;;8.88;;
78416;SDS011;67715;46.170;6.140;2023-02-28T08:38:36;11.15;;;7.93;;
78416;SDS011;67715;46.170;6.140;2023-02-28T08:41:06;11.80;;;7.55;;
78416;SDS011;67715;46.170;6.140;2023-02-28T08:43:34;11.50;;;7.90;;
78416;SDS011;67715;46.170;6.140;2023-02-28T08:45:59;12.13;;;8.32;;
78416;SDS011;67715;46.170;6.140;2023-02-28T08:48:26;11.98;;;7.63;;
78416;SDS011;67715;46.170;6.140;2023-02-28T08:51:00;14.02;;;8.05;;
78416;SDS011;67715;46.170;6.140;2023-02-28T08:53:26;10.85;;;7.22;;
78416;SDS011;67715;46.170;6.140;2023-02-28T08:55:59;12.93;;;7.93;;
78416;SDS011;67715;46.170;6.140;2023-02-28T08:58:25;11.75;;;7.95;;
78416;SDS011;67715;46.170;6.140;2023-02-28T09:00:50;13.15;;;8.90;;
78416;SDS011;67715;46.170;6.140;2023-02-28T09:03:16;12.68;;;8.05;;
78416;SDS011;67715;46.170;6.140;2023-02-28T09:05:51;14.60;;;8.55;;
78416;SDS011;67715;46.170;6.140;2023-02-28T09:08:19;13.40;;;8.32;;
78416;SDS011;67715;46.170;6.140;2023-02-28T09:10:45;11.70;;;7.67;;
78416;SDS011;67715;46.170;6.140;2023-02-28T09:13:10;11.00;;;7.83;;
78416;SDS011;67715;46.170;6.140;2023-02-28T09:15:36;12.90;;;7.70;;
78416;SDS011;67715;46.170;6.140;2023-02-28T09:18:02;11.77;;;8.02;;
78416;SDS011;67715;46.170;6.140;2023-02-28T09:20:28;11.85;;;8.27;;
78416;SDS011;67715;46.170;6.140;2023-02-28T09:22:53;11.43;;;7.97;;
78416;SDS011;67715;46.170;6.140;2023-02-28T09:25:18;13.23;;;7.80;;
78416;SDS011;67715;46.170;6.140;2023-02-28T09:27:43;16.43;;;8.17;;
78416;SDS011;67715;46.170;6.140;2023-02-28T09:30:10;12.35;;;8.15;;
78416;SDS011;67715;46.170;6.140;2023-02-28T09:32:36;14.10;;;8.68;;
78416;SDS011;67715;46.170;6.140;2023-02-28T09:35:02;15.68;;;8.20;;
78416;SDS011;67715;46.170;6.140;2023-02-28T09:37:27;13.70;;;9.15;;
78416;SDS011;67715;46.170;6.140;2023-02-28T09:39:54;15.18;;;7.90;;
78416;SDS011;67715;46.170;6.140;2023-02-28T09:42:29;12.53;;;8.00;;
78416;SDS011;67715;46.170;6.140;2023-02-28T09:44:56;20.05;;;8.93;;
78416;SDS011;67715;46.170;6.140;2023-02-28T09:53:02;11.35;;;7.20;;
78416;SDS011;67715;46.170;6.140;2023-02-28T09:58:33;13.10;;;7.63;;
78416;SDS011;67715;46.170;6.140;2023-02-28T10:01:42;13.80;;;7.97;;
78416;SDS011;67715;46.170;6.140;2023-02-28T10:06:51;12.82;;;8.27;;
78416;SDS011;67715;46.170;6.140;2023-02-28T10:09:24;13.02;;;8.68;;
78416;SDS011;67715;46.170;6.140;2023-02-28T10:12:01;11.65;;;7.47;;
78416;SDS011;67715;46.170;6.140;2023-02-28T10:14:29;14.00;;;8.02;;
78416;SDS011;67715;46.170;6.140;2023-02-28T10:16:59;12.57;;;8.82;;
78416;SDS011;67715;46.170;6.140;2023-02-28T10:19:30;12.75;;;8.02;;
78416;SDS011;67715;46.170;6.140;2023-02-28T10:24:32;11.75;;;8.95;;
78416;SDS011;67715;46.170;6.140;2023-02-28T10:27:01;13.82;;;7.97;;
78416;SDS011;67715;46.170;6.140;2023-02-28T10:29:34;12.70;;;8.77;;
78416;SDS011;67715;46.170;6.140;2023-02-28T10:32:00;13.23;;;8.30;;
78416;SDS011;67715;46.170;6.140;2023-02-28T10:34:26;12.43;;;8.40;;
78416;SDS011;67715;46.170;6.140;2023-02-28T10:36:51;12.50;;;8.03;;
78416;SDS011;67715;46.170;6.140;2023-02-28T10:42:02;13.32;;;7.53;;
78416;SDS011;67715;46.170;6.140;2023-02-28T10:44:28;12.90;;;8.93;;
78416;SDS011;67715;46.170;6.140;2023-02-28T10:46:53;13.63;;;8.90;;
78416;SDS011;67715;46.170;6.140;2023-02-28T10:49:23;13.23;;;8.80;;
78416;SDS011;67715;46.170;6.140;2023-02-28T10:51:53;11.35;;;7.55;;
78416;SDS011;67715;46.170;6.140;2023-02-28T10:57:08;12.77;;;7.90;;
78416;SDS011;67715;46.170;6.140;2023-02-28T10:59:40;13.52;;;7.55;;
78416;SDS011;67715;46.170;6.140;2023-02-28T11:02:28;10.65;;;7.40;;
78416;SDS011;67715;46.170;6.140;2023-02-28T11:04:56;14.85;;;8.73;;
78416;SDS011;67715;46.170;6.140;2023-02-28T11:07:22;12.50;;;8.10;;
78416;SDS011;67715;46.170;6.140;2023-02-28T11:09:48;10.68;;;8.23;;
78416;SDS011;67715;46.170;6.140;2023-02-28T11:12:22;13.45;;;8.18;;
78416;SDS011;67715;46.170;6.140;2023-02-28T11:14:57;13.52;;;8.80;;
78416;SDS011;67715;46.170;6.140;2023-02-28T11:17:29;14.13;;;8.68;;
78416;SDS011;67715;46.170;6.140;2023-02-28T11:20:01;17.38;;;8.55;;
78416;SDS011;67715;46.170;6.140;2023-02-28T11:22:30;12.52;;;8.35;;
78416;SDS011;67715;46.170;6.140;2023-02-28T11:25:01;13.70;;;8.82;;
78416;SDS011;67715;46.170;6.140;2023-02-28T11:29:56;14.77;;;9.23;;
78416;SDS011;67715;46.170;6.140;2023-02-28T11:32:25;15.00;;;8.38;;
78416;SDS011;67715;46.170;6.140;2023-02-28T11:37:34;14.35;;;8.68;;
78416;SDS011;67715;46.170;6.140;2023-02-28T11:39:59;16.02;;;7.70;;
78416;SDS011;67715;46.170;6.140;2023-02-28T11:45:18;12.98;;;8.50;;
78416;SDS011;67715;46.170;6.140;2023-02-28T11:50:39;11.73;;;7.35;;
78416;SDS011;67715;46.170;6.140;2023-02-28T11:55:44;15.63;;;9.15;;
78416;SDS011;67715;46.170;6.140;2023-02-28T11:58:29;11.80;;;8.13;;
78416;SDS011;67715;46.170;6.140;2023-02-28T12:09:17;13.27;;;7.85;;
78416;SDS011;67715;46.170;6.140;2023-02-28T12:11:52;13.88;;;8.90;;
78416;SDS011;67715;46.170;6.140;2023-02-28T12:14:24;14.45;;;7.95;;
78416;SDS011;67715;46.170;6.140;2023-02-28T12:17:17;13.38;;;8.27;;
78416;SDS011;67715;46.170;6.140;2023-02-28T12:26:09;15.68;;;9.23;;
78416;SDS011;67715;46.170;6.140;2023-02-28T12:29:19;10.68;;;7.38;;
78416;SDS011;67715;46.170;6.140;2023-02-28T12:31:59;13.88;;;8.50;;
78416;SDS011;67715;46.170;6.140;2023-02-28T12:35:00;12.57;;;7.57;;
78416;SDS011;67715;46.170;6.140;2023-02-28T12:37:29;14.18;;;8.75;;
78416;SDS011;67715;46.170;6.140;2023-02-28T12:40:03;14.10;;;8.32;;
78416;SDS011;67715;46.170;6.140;2023-02-28T12:42:32;12.85;;;8.38;;
78416;SDS011;67715;46.170;6.140;2023-02-28T12:45:01;16.02;;;9.10;;
78416;SDS011;67715;46.170;6.140;2023-02-28T12:47:28;16.77;;;8.77;;
78416;SDS011;67715;46.170;6.140;2023-02-28T12:49:58;16.35;;;8.88;;
78416;SDS011;67715;46.170;6.140;2023-02-28T12:52:28;18.40;;;10.45;;
78416;SDS011;67715;46.170;6.140;2023-02-28T12:55:03;15.60;;;9.30;;
78416;SDS011;67715;46.170;6.140;2023-02-28T12:57:41;16.58;;;8.85;;
78416;SDS011;67715;46.170;6.140;2023-02-28T13:00:14;13.43;;;8.95;;
78416;SDS011;67715;46.170;6.140;2023-02-28T13:09:08;12.73;;;8.15;;
78416;SDS011;67715;46.170;6.140;2023-02-28T13:11:39;15.15;;;8.15;;
78416;SDS011;67715;46.170;6.140;2023-02-28T13:19:29;15.18;;;9.27;;
78416;SDS011;67715;46.170;6.140;2023-02-28T13:21:57;12.82;;;9.18;;
78416;SDS011;67715;46.170;6.140;2023-02-28T13:29:34;13.70;;;9.45;;
78416;SDS011;67715;46.170;6.140;2023-02-28T13:34:40;11.07;;;7.05;;
78416;SDS011;67715;46.170;6.140;2023-02-28T13:39:45;13.60;;;8.98;;
78416;SDS011;67715;46.170;6.140;2023-02-28T13:45:19;16.48;;;10.07;;
78416;SDS011;67715;46.170;6.140;2023-02-28T13:47:45;14.63;;;8.68;;
78416;SDS011;67715;46.170;6.140;2023-02-28T13:58:19;16.75;;;9.68;;
78416;SDS011;67715;46.170;6.140;2023-02-28T14:03:55;15.63;;;9.27;;
78416;SDS011;67715;46.170;6.140;2023-02-28T14:06:32;19.02;;;9.70;;
78416;SDS011;67715;46.170;6.140;2023-02-28T14:11:33;12.00;;;8.52;;
78416;SDS011;67715;46.170;6.140;2023-02-28T14:14:02;11.70;;;8.43;;
78416;SDS011;67715;46.170;6.140;2023-02-28T14:16:45;14.48;;;8.98;;
78416;SDS011;67715;46.170;6.140;2023-02-28T14:19:13;14.32;;;9.35;;
78416;SDS011;67715;46.170;6.140;2023-02-28T14:32:54;15.60;;;9.32;;
78416;SDS011;67715;46.170;6.140;2023-02-28T14:37:51;16.77;;;8.77;;
78416;SDS011;67715;46.170;6.140;2023-02-28T14:40:27;17.65;;;8.85;;
78416;SDS011;67715;46.170;6.140;2023-02-28T14:42:56;13.20;;;8.98;;
78416;SDS011;67715;46.170;6.140;2023-02-28T14:45:24;13.00;;;8.55;;
78416;SDS011;67715;46.170;6.140;2023-02-28T14:47:50;14.40;;;9.27;;
78416;SDS011;67715;46.170;6.140;2023-02-28T14:50:17;12.80;;;9.30;;
78416;SDS011;67715;46.170;6.140;2023-02-28T14:52:44;15.30;;;9.90;;
78416;SDS011;67715;46.170;6.140;2023-02-28T14:55:14;14.97;;;8.83;;
78416;SDS011;67715;46.170;6.140;2023-02-28T14:57:53;13.35;;;8.90;;
78416;SDS011;67715;46.170;6.140;2023-02-28T15:00:24;13.95;;;8.88;;
78416;SDS011;67715;46.170;6.140;2023-02-28T15:02:51;15.30;;;9.40;;
78416;SDS011;67715;46.170;6.140;2023-02-28T15:10:38;14.80;;;8.70;;
78416;SDS011;67715;46.170;6.140;2023-02-28T15:13:09;14.60;;;9.38;;
78416;SDS011;67715;46.170;6.140;2023-02-28T15:18:22;15.88;;;9.02;;
78416;SDS011;67715;46.170;6.140;2023-02-28T15:20:55;12.02;;;8.93;;
78416;SDS011;67715;46.170;6.140;2023-02-28T15:23:22;13.10;;;9.00;;
78416;SDS011;67715;46.170;6.140;2023-02-28T15:25:48;14.50;;;8.50;;
78416;SDS011;67715;46.170;6.140;2023-02-28T15:28:15;14.02;;;8.88;;
78416;SDS011;67715;46.170;6.140;2023-02-28T15:31:18;16.27;;;9.00;;
78416;SDS011;67715;46.170;6.140;2023-02-28T15:33:52;12.07;;;8.10;;
78416;SDS011;67715;46.170;6.140;2023-02-28T15:36:19;12.38;;;9.07;;
78416;SDS011;67715;46.170;6.140;2023-02-28T15:38:50;14.30;;;9.32;;
78416;SDS011;67715;46.170;6.140;2023-02-28T15:41:29;14.18;;;8.65;;
78416;SDS011;67715;46.170;6.140;2023-02-28T15:47:01;15.07;;;9.13;;
78416;SDS011;67715;46.170;6.140;2023-02-28T15:49:29;15.80;;;9.52;;
78416;SDS011;67715;46.170;6.140;2023-02-28T15:52:00;13.52;;;9.57;;
78416;SDS011;67715;46.170;6.140;2023-02-28T15:54:30;14.35;;;9.20;;
78416;SDS011;67715;46.170;6.140;2023-02-28T15:57:00;14.65;;;9.55;;
78416;SDS011;67715;46.170;6.140;2023-02-28T15:59:28;18.15;;;9.23;;
78416;SDS011;67715;46.170;6.140;2023-02-28T16:04:54;12.77;;;8.57;;
78416;SDS011;67715;46.170;6.140;2023-02-28T16:07:27;13.88;;;9.35;;
78416;SDS011;67715;46.170;6.140;2023-02-28T16:09:53;12.93;;;8.30;;
78416;SDS011;67715;46.170;6.140;2023-02-28T16:12:20;12.90;;;8.40;;
78416;SDS011;67715;46.170;6.140;2023-02-28T16:14:46;16.00;;;9.75;;
78416;SDS011;67715;46.170;6.140;2023-02-28T16:17:18;13.40;;;8.95;;
78416;SDS011;67715;46.170;6.140;2023-02-28T16:19:48;13.07;;;8.90;;
78416;SDS011;67715;46.170;6.140;2023-02-28T16:22:13;14.90;;;9.00;;
78416;SDS011;67715;46.170;6.140;2023-02-28T16:24:39;14.87;;;9.67;;
78416;SDS011;67715;46.170;6.140;2023-02-28T16:27:05;12.15;;;8.07;;
78416;SDS011;67715;46.170;6.140;2023-02-28T16:29:31;14.00;;;8.73;;
78416;SDS011;67715;46.170;6.140;2023-02-28T16:31:59;13.88;;;9.43;;
78416;SDS011;67715;46.170;6.140;2023-02-28T16:34:25;13.30;;;8.20;;
78416;SDS011;67715;46.170;6.140;2023-02-28T16:36:52;12.82;;;8.23;;
78416;SDS011;67715;46.170;6.140;2023-02-28T16:39:17;12.57;;;8.32;;
78416;SDS011;67715;46.170;6.140;2023-02-28T16:41:45;13.45;;;8.70;;
78416;SDS011;67715;46.170;6.140;2023-02-28T16:44:13;11.95;;;8.15;;
78416;SDS011;67715;46.170;6.140;2023-02-28T16:46:53;12.23;;;8.50;;
78416;SDS011;67715;46.170;6.140;2023-02-28T16:49:19;14.40;;;8.93;;
78416;SDS011;67715;46.170;6.140;2023-02-28T16:51:44;12.43;;;8.48;;
78416;SDS011;67715;46.170;6.140;2023-02-28T16:54:09;13.30;;;8.90;;
78416;SDS011;67715;46.170;6.140;2023-02-28T16:56:35;14.73;;;8.93;;
78416;SDS011;67715;46.170;6.140;2023-02-28T16:59:00;14.05;;;9.00;;
78416;SDS011;67715;46.170;6.140;2023-02-28T17:01:26;11.43;;;8.05;;
78416;SDS011;67715;46.170;6.140;2023-02-28T17:03:52;13.85;;;9.68;;
78416;SDS011;67715;46.170;6.140;2023-02-28T17:06:21;14.32;;;8.85;;
78416;SDS011;67715;46.170;6.140;2023-02-28T17:08:49;13.40;;;9.00;;
78416;SDS011;67715;46.170;6.140;2023-02-28T17:11:15;13.93;;;9.02;;
78416;SDS011;67715;46.170;6.140;2023-02-28T17:13:41;11.95;;;8.75;;